sensor_id;sensor_type;location;lat;lon;timestamp;P1;durP1;ratioP1;P2;durP2;ratioP2
43620;SDS011;29213;50.770;7.298;2023-07-08T00:00:46;9.77;;;6.10;;
43620;SDS011;29213;50.770;7.298;2023-07-08T00:03:15;7.40;;;5.30;;
43620;SDS011;29213;50.770;7.298;2023-07-08T00:05:41;8.80;;;5.90;;
43620;SDS011;29213;50.770;7.298;2023-07-08T00:08:13;7.95;;;5.50;;
43620;SDS011;29213;50.770;7.298;2023-07-08T00:10:39;9.02;;;6.10;;
43620;SDS011;29213;50.770;7.298;2023-07-08T00:13:05;8.07;;;5.60;;
43620;SDS011;29213;50.770;7.298;2023-07-08T00:15:31;8.02;;;5.30;;
43620;SDS011;29213;50.770;7.298;2023-07-08T00:18:01;8.52;;;5.63;;
43620;SDS011;29213;50.770;7.298;2023-07-08T00:20:42;10.07;;;6.25;;
43620;SDS011;29213;50.770;7.298;2023-07-08T00:23:09;8.15;;;6.15;;
43620;SDS011;29213;50.770;7.298;2023-07-08T00:25:35;9.75;;;5.95;;
43620;SDS011;29213;50.770;7.298;2023-07-08T00:28:01;8.77;;;6.03;;
43620;SDS011;29213;50.770;7.298;2023-07-08T00:30:28;8.95;;;5.90;;
43620;SDS011;29213;50.770;7.298;2023-07-08T00:32:55;8.07;;;5.70;;
43620;SDS011;29213;50.770;7.298;2023-07-08T00:35:34;8.50;;;5.80;;
43620;SDS011;29213;50.770;7.298;2023-07-08T00:38:04;8.68;;;6.10;;
43620;SDS011;29213;50.770;7.298;2023-07-08T00:40:37;8.13;;;5.80;;
43620;SDS011;29213;50.770;7.298;2023-07-08T00:43:13;8.70;;;6.07;;
43620;SDS011;29213;50.770;7.298;2023-07-08T00:45:49;8.27;;;5.72;;
43620;SDS011;29213;50.770;7.298;2023-07-08T00:48:23;8.73;;;6.25;;
43620;SDS011;29213;50.770;7.298;2023-07-08T00:50:52;8.00;;;5.60;;
43620;SDS011;29213;50.770;7.298;2023-07-08T00:53:33;9.63;;;6.07;;
43620;SDS011;29213;50.770;7.298;2023-07-08T00:56:02;8.70;;;6.10;;
43620;SDS011;29213;50.770;7.298;2023-07-08T00:58:31;8.23;;;5.93;;
43620;SDS011;29213;50.770;7.298;2023-07-08T01:01:00;8.30;;;6.05;;
43620;SDS011;29213;50.770;7.298;2023-07-08T01:03:29;8.05;;;5.72;;
43620;SDS011;29213;50.770;7.298;2023-07-08T01:05:55;9.70;;;5.82;;
43620;SDS011;29213;50.770;7.298;2023-07-08T01:08:25;8.13;;;6.00;;
43620;SDS011;29213;50.770;7.298;2023-07-08T01:10:55;10.10;;;6.20;;
43620;SDS011;29213;50.770;7.298;2023-07-08T01:13:26;9.27;;;6.00;;
43620;SDS011;29213;50.770;7.298;2023-07-08T01:15:55;7.85;;;5.78;;
43620;SDS011;29213;50.770;7.298;2023-07-08T01:18:21;9.65;;;6.18;;
43620;SDS011;29213;50.770;7.298;2023-07-08T01:20:47;8.02;;;6.03;;
43620;SDS011;29213;50.770;7.298;2023-07-08T01:23:13;8.60;;;6.07;;
43620;SDS011;29213;50.770;7.298;2023-07-08T01:25:39;8.35;;;5.82;;
43620;SDS011;29213;50.770;7.298;2023-07-08T01:28:07;8.18;;;5.85;;
43620;SDS011;29213;50.770;7.298;2023-07-08T01:30:33;8.30;;;5.45;;
43620;SDS011;29213;50.770;7.298;2023-07-08T01:33:03;8.43;;;5.78;;
43620;SDS011;29213;50.770;7.298;2023-07-08T01:35:40;7.65;;;5.45;;
43620;SDS011;29213;50.770;7.298;2023-07-08T01:38:06;9.27;;;5.95;;
43620;SDS011;29213;50.770;7.298;2023-07-08T01:40:36;8.75;;;5.85;;
43620;SDS011;29213;50.770;7.298;2023-07-08T01:43:02;9.25;;;6.03;;
43620;SDS011;29213;50.770;7.298;2023-07-08T01:45:36;8.52;;;5.80;;
43620;SDS011;29213;50.770;7.298;2023-07-08T01:48:07;9.38;;;6.18;;
43620;SDS011;29213;50.770;7.298;2023-07-08T01:50:35;9.07;;;5.70;;
43620;SDS011;29213;50.770;7.298;2023-07-08T01:53:10;7.60;;;5.50;;
43620;SDS011;29213;50.770;7.298;2023-07-08T01:55:40;8.55;;;6.30;;
43620;SDS011;29213;50.770;7.298;2023-07-08T01:58:05;9.95;;;6.35;;
43620;SDS011;29213;50.770;7.298;2023-07-08T02:00:31;10.15;;;6.15;;
43620;SDS011;29213;50.770;7.298;2023-07-08T02:02:56;9.98;;;6.30;;
43620;SDS011;29213;50.770;7.298;2023-07-08T02:05:22;8.57;;;6.05;;
43620;SDS011;29213;50.770;7.298;2023-07-08T02:07:48;9.98;;;6.25;;
43620;SDS011;29213;50.770;7.298;2023-07-08T02:10:13;10.57;;;6.28;;
43620;SDS011;29213;50.770;7.298;2023-07-08T02:12:39;9.25;;;6.20;;
43620;SDS011;29213;50.770;7.298;2023-07-08T02:15:05;8.48;;;5.88;;
43620;SDS011;29213;50.770;7.298;2023-07-08T02:17:31;9.07;;;5.60;;
43620;SDS011;29213;50.770;7.298;2023-07-08T02:19:56;7.90;;;5.60;;
43620;SDS011;29213;50.770;7.298;2023-07-08T02:22:22;8.63;;;6.05;;
43620;SDS011;29213;50.770;7.298;2023-07-08T02:24:48;9.45;;;6.38;;
43620;SDS011;29213;50.770;7.298;2023-07-08T02:27:13;7.85;;;5.45;;
43620;SDS011;29213;50.770;7.298;2023-07-08T02:29:39;10.85;;;5.88;;
43620;SDS011;29213;50.770;7.298;2023-07-08T02:32:05;8.32;;;5.72;;
43620;SDS011;29213;50.770;7.298;2023-07-08T02:34:31;7.88;;;5.70;;
43620;SDS011;29213;50.770;7.298;2023-07-08T02:36:57;9.43;;;5.97;;
43620;SDS011;29213;50.770;7.298;2023-07-08T02:39:22;9.25;;;5.70;;
43620;SDS011;29213;50.770;7.298;2023-07-08T02:41:48;9.75;;;6.00;;
43620;SDS011;29213;50.770;7.298;2023-07-08T02:44:14;8.98;;;6.10;;
43620;SDS011;29213;50.770;7.298;2023-07-08T02:46:39;8.73;;;6.03;;
43620;SDS011;29213;50.770;7.298;2023-07-08T02:49:05;8.85;;;5.80;;
43620;SDS011;29213;50.770;7.298;2023-07-08T02:51:32;7.60;;;5.78;;
43620;SDS011;29213;50.770;7.298;2023-07-08T02:53:57;9.38;;;5.72;;
43620;SDS011;29213;50.770;7.298;2023-07-08T02:56:23;8.25;;;6.00;;
43620;SDS011;29213;50.770;7.298;2023-07-08T02:58:49;8.10;;;5.80;;
43620;SDS011;29213;50.770;7.298;2023-07-08T03:01:14;8.07;;;5.72;;
43620;SDS011;29213;50.770;7.298;2023-07-08T03:03:44;9.32;;;5.47;;
43620;SDS011;29213;50.770;7.298;2023-07-08T03:06:10;7.95;;;5.63;;
43620;SDS011;29213;50.770;7.298;2023-07-08T03:08:36;7.85;;;5.40;;
43620;SDS011;29213;50.770;7.298;2023-07-08T03:11:02;8.13;;;5.43;;
43620;SDS011;29213;50.770;7.298;2023-07-08T03:13:29;7.78;;;5.63;;
43620;SDS011;29213;50.770;7.298;2023-07-08T03:15:55;7.90;;;5.50;;
43620;SDS011;29213;50.770;7.298;2023-07-08T03:18:22;9.02;;;5.47;;
43620;SDS011;29213;50.770;7.298;2023-07-08T03:20:49;9.40;;;5.75;;
43620;SDS011;29213;50.770;7.298;2023-07-08T03:23:14;7.15;;;5.22;;
43620;SDS011;29213;50.770;7.298;2023-07-08T03:25:40;8.27;;;5.55;;
43620;SDS011;29213;50.770;7.298;2023-07-08T03:28:06;8.25;;;5.70;;
43620;SDS011;29213;50.770;7.298;2023-07-08T03:30:33;9.77;;;5.57;;
43620;SDS011;29213;50.770;7.298;2023-07-08T03:32:59;8.07;;;5.68;;
43620;SDS011;29213;50.770;7.298;2023-07-08T03:35:25;7.68;;;5.63;;
43620;SDS011;29213;50.770;7.298;2023-07-08T03:37:51;8.75;;;5.22;;
43620;SDS011;29213;50.770;7.298;2023-07-08T03:40:18;7.53;;;5.30;;
43620;SDS011;29213;50.770;7.298;2023-07-08T03:42:43;9.25;;;5.68;;
43620;SDS011;29213;50.770;7.298;2023-07-08T03:45:09;7.72;;;4.97;;
43620;SDS011;29213;50.770;7.298;2023-07-08T03:47:35;6.93;;;5.25;;
43620;SDS011;29213;50.770;7.298;2023-07-08T03:50:00;7.45;;;5.60;;
43620;SDS011;29213;50.770;7.298;2023-07-08T03:52:26;8.27;;;5.50;;
43620;SDS011;29213;50.770;7.298;2023-07-08T03:54:51;8.00;;;5.10;;
43620;SDS011;29213;50.770;7.298;2023-07-08T03:57:16;6.95;;;4.72;;
43620;SDS011;29213;50.770;7.298;2023-07-08T03:59:42;7.57;;;5.22;;
43620;SDS011;29213;50.770;7.298;2023-07-08T04:02:10;7.90;;;5.15;;
43620;SDS011;29213;50.770;7.298;2023-07-08T04:04:36;7.32;;;4.97;;
43620;SDS011;29213;50.770;7.298;2023-07-08T04:07:03;11.80;;;5.53;;
43620;SDS011;29213;50.770;7.298;2023-07-08T04:09:29;7.70;;;5.32;;
43620;SDS011;29213;50.770;7.298;2023-07-08T04:11:54;6.97;;;4.72;;
43620;SDS011;29213;50.770;7.298;2023-07-08T04:14:19;7.38;;;5.25;;
43620;SDS011;29213;50.770;7.298;2023-07-08T04:16:47;7.45;;;5.00;;
43620;SDS011;29213;50.770;7.298;2023-07-08T04:19:16;8.13;;;5.50;;
43620;SDS011;29213;50.770;7.298;2023-07-08T04:21:42;8.40;;;5.55;;
43620;SDS011;29213;50.770;7.298;2023-07-08T04:24:09;8.55;;;5.68;;
43620;SDS011;29213;50.770;7.298;2023-07-08T04:26:36;6.68;;;4.85;;
43620;SDS011;29213;50.770;7.298;2023-07-08T04:29:05;6.50;;;4.88;;
43620;SDS011;29213;50.770;7.298;2023-07-08T04:31:32;7.70;;;5.00;;
43620;SDS011;29213;50.770;7.298;2023-07-08T04:33:57;9.77;;;5.30;;
43620;SDS011;29213;50.770;7.298;2023-07-08T04:36:23;8.07;;;5.20;;
43620;SDS011;29213;50.770;7.298;2023-07-08T04:38:50;8.38;;;4.80;;
43620;SDS011;29213;50.770;7.298;2023-07-08T04:41:15;7.18;;;4.80;;
43620;SDS011;29213;50.770;7.298;2023-07-08T04:43:40;6.88;;;4.97;;
43620;SDS011;29213;50.770;7.298;2023-07-08T04:46:10;6.90;;;4.82;;
43620;SDS011;29213;50.770;7.298;2023-07-08T04:48:44;8.00;;;4.95;;
43620;SDS011;29213;50.770;7.298;2023-07-08T04:51:10;7.00;;;4.47;;
43620;SDS011;29213;50.770;7.298;2023-07-08T04:53:36;6.72;;;4.80;;
43620;SDS011;29213;50.770;7.298;2023-07-08T04:56:01;8.98;;;4.80;;
43620;SDS011;29213;50.770;7.298;2023-07-08T04:58:27;6.60;;;4.85;;
43620;SDS011;29213;50.770;7.298;2023-07-08T05:00:52;7.95;;;4.88;;
43620;SDS011;29213;50.770;7.298;2023-07-08T05:03:17;6.57;;;4.57;;
43620;SDS011;29213;50.770;7.298;2023-07-08T05:05:43;7.07;;;4.65;;
43620;SDS011;29213;50.770;7.298;2023-07-08T05:08:08;6.93;;;4.57;;
43620;SDS011;29213;50.770;7.298;2023-07-08T05:10:34;6.68;;;4.28;;
43620;SDS011;29213;50.770;7.298;2023-07-08T05:13:00;6.38;;;4.60;;
43620;SDS011;29213;50.770;7.298;2023-07-08T05:15:25;7.28;;;4.53;;
43620;SDS011;29213;50.770;7.298;2023-07-08T05:17:51;6.38;;;4.05;;
43620;SDS011;29213;50.770;7.298;2023-07-08T05:20:17;6.90;;;4.22;;
43620;SDS011;29213;50.770;7.298;2023-07-08T05:22:43;6.60;;;4.78;;
43620;SDS011;29213;50.770;7.298;2023-07-08T05:25:10;7.13;;;4.40;;
43620;SDS011;29213;50.770;7.298;2023-07-08T05:27:36;7.07;;;4.20;;
43620;SDS011;29213;50.770;7.298;2023-07-08T05:30:02;6.05;;;4.10;;
43620;SDS011;29213;50.770;7.298;2023-07-08T05:32:28;6.15;;;4.32;;
43620;SDS011;29213;50.770;7.298;2023-07-08T05:34:54;6.45;;;4.28;;
43620;SDS011;29213;50.770;7.298;2023-07-08T05:37:19;6.20;;;4.28;;
43620;SDS011;29213;50.770;7.298;2023-07-08T05:39:50;5.70;;;4.30;;
43620;SDS011;29213;50.770;7.298;2023-07-08T05:42:16;8.75;;;4.03;;
43620;SDS011;29213;50.770;7.298;2023-07-08T05:44:41;7.20;;;4.38;;
43620;SDS011;29213;50.770;7.298;2023-07-08T05:47:06;6.40;;;4.20;;
43620;SDS011;29213;50.770;7.298;2023-07-08T05:49:32;6.65;;;4.07;;
43620;SDS011;29213;50.770;7.298;2023-07-08T05:51:57;5.95;;;3.85;;
43620;SDS011;29213;50.770;7.298;2023-07-08T05:54:23;6.15;;;3.65;;
43620;SDS011;29213;50.770;7.298;2023-07-08T05:56:48;5.32;;;3.95;;
43620;SDS011;29213;50.770;7.298;2023-07-08T05:59:13;5.57;;;3.58;;
43620;SDS011;29213;50.770;7.298;2023-07-08T06:01:39;5.60;;;3.75;;
43620;SDS011;29213;50.770;7.298;2023-07-08T06:04:04;5.50;;;3.45;;
43620;SDS011;29213;50.770;7.298;2023-07-08T06:06:30;6.43;;;4.30;;
43620;SDS011;29213;50.770;7.298;2023-07-08T06:08:55;5.75;;;3.50;;
43620;SDS011;29213;50.770;7.298;2023-07-08T06:11:21;6.05;;;3.30;;
43620;SDS011;29213;50.770;7.298;2023-07-08T06:13:47;7.43;;;3.90;;
43620;SDS011;29213;50.770;7.298;2023-07-08T06:16:13;5.72;;;3.50;;
43620;SDS011;29213;50.770;7.298;2023-07-08T06:18:38;6.30;;;3.75;;
43620;SDS011;29213;50.770;7.298;2023-07-08T06:21:04;6.40;;;3.53;;
43620;SDS011;29213;50.770;7.298;2023-07-08T06:23:30;5.25;;;3.50;;
43620;SDS011;29213;50.770;7.298;2023-07-08T06:25:56;7.00;;;3.85;;
43620;SDS011;29213;50.770;7.298;2023-07-08T06:28:22;5.43;;;3.65;;
43620;SDS011;29213;50.770;7.298;2023-07-08T06:30:47;7.85;;;3.63;;
43620;SDS011;29213;50.770;7.298;2023-07-08T06:33:13;5.32;;;3.70;;
43620;SDS011;29213;50.770;7.298;2023-07-08T06:35:38;5.07;;;3.78;;
43620;SDS011;29213;50.770;7.298;2023-07-08T06:38:05;5.68;;;3.70;;
43620;SDS011;29213;50.770;7.298;2023-07-08T06:40:31;6.53;;;3.60;;
43620;SDS011;29213;50.770;7.298;2023-07-08T06:42:57;6.40;;;3.65;;
43620;SDS011;29213;50.770;7.298;2023-07-08T06:45:23;6.47;;;4.03;;
43620;SDS011;29213;50.770;7.298;2023-07-08T06:47:48;5.65;;;3.63;;
43620;SDS011;29213;50.770;7.298;2023-07-08T06:50:14;8.43;;;4.30;;
43620;SDS011;29213;50.770;7.298;2023-07-08T06:52:39;6.70;;;3.67;;
43620;SDS011;29213;50.770;7.298;2023-07-08T06:55:06;5.65;;;3.70;;
43620;SDS011;29213;50.770;7.298;2023-07-08T06:57:33;6.43;;;3.78;;
43620;SDS011;29213;50.770;7.298;2023-07-08T06:59:59;6.07;;;3.85;;
43620;SDS011;29213;50.770;7.298;2023-07-08T07:02:25;6.55;;;4.28;;
43620;SDS011;29213;50.770;7.298;2023-07-08T07:04:51;5.28;;;3.72;;
43620;SDS011;29213;50.770;7.298;2023-07-08T07:07:16;5.28;;;3.70;;
43620;SDS011;29213;50.770;7.298;2023-07-08T07:09:42;5.93;;;3.90;;
43620;SDS011;29213;50.770;7.298;2023-07-08T07:12:07;6.53;;;3.72;;
43620;SDS011;29213;50.770;7.298;2023-07-08T07:14:33;6.88;;;4.07;;
43620;SDS011;29213;50.770;7.298;2023-07-08T07:16:58;5.30;;;3.53;;
43620;SDS011;29213;50.770;7.298;2023-07-08T07:19:24;6.32;;;3.83;;
43620;SDS011;29213;50.770;7.298;2023-07-08T07:21:50;6.28;;;4.05;;
43620;SDS011;29213;50.770;7.298;2023-07-08T07:24:15;6.90;;;4.40;;
43620;SDS011;29213;50.770;7.298;2023-07-08T07:26:40;8.38;;;4.38;;
43620;SDS011;29213;50.770;7.298;2023-07-08T07:29:06;6.85;;;4.30;;
43620;SDS011;29213;50.770;7.298;2023-07-08T07:31:31;6.97;;;4.50;;
43620;SDS011;29213;50.770;7.298;2023-07-08T07:33:58;6.68;;;4.30;;
43620;SDS011;29213;50.770;7.298;2023-07-08T07:36:24;6.30;;;4.07;;
43620;SDS011;29213;50.770;7.298;2023-07-08T07:38:50;6.43;;;4.60;;
43620;SDS011;29213;50.770;7.298;2023-07-08T07:41:16;5.88;;;4.50;;
43620;SDS011;29213;50.770;7.298;2023-07-08T07:43:41;10.13;;;4.75;;
43620;SDS011;29213;50.770;7.298;2023-07-08T07:46:07;7.95;;;4.40;;
43620;SDS011;29213;50.770;7.298;2023-07-08T07:48:33;5.50;;;4.03;;
43620;SDS011;29213;50.770;7.298;2023-07-08T07:50:58;6.38;;;3.92;;
43620;SDS011;29213;50.770;7.298;2023-07-08T07:53:24;9.20;;;4.40;;
43620;SDS011;29213;50.770;7.298;2023-07-08T07:55:55;8.23;;;4.60;;
43620;SDS011;29213;50.770;7.298;2023-07-08T07:58:21;6.32;;;3.92;;
43620;SDS011;29213;50.770;7.298;2023-07-08T08:00:47;6.32;;;4.57;;
43620;SDS011;29213;50.770;7.298;2023-07-08T08:03:12;6.57;;;4.55;;
43620;SDS011;29213;50.770;7.298;2023-07-08T08:05:37;7.72;;;4.72;;
43620;SDS011;29213;50.770;7.298;2023-07-08T08:08:03;6.57;;;3.80;;
43620;SDS011;29213;50.770;7.298;2023-07-08T08:10:29;5.60;;;3.78;;
43620;SDS011;29213;50.770;7.298;2023-07-08T08:12:55;5.43;;;3.70;;
43620;SDS011;29213;50.770;7.298;2023-07-08T08:15:21;6.50;;;3.78;;
43620;SDS011;29213;50.770;7.298;2023-07-08T08:17:47;6.43;;;4.00;;
43620;SDS011;29213;50.770;7.298;2023-07-08T08:20:14;5.32;;;3.78;;
43620;SDS011;29213;50.770;7.298;2023-07-08T08:22:39;6.38;;;4.10;;
43620;SDS011;29213;50.770;7.298;2023-07-08T08:25:05;9.60;;;4.28;;
43620;SDS011;29213;50.770;7.298;2023-07-08T08:27:31;5.32;;;3.80;;
43620;SDS011;29213;50.770;7.298;2023-07-08T08:29:57;5.68;;;3.85;;
43620;SDS011;29213;50.770;7.298;2023-07-08T08:32:22;8.40;;;3.85;;
43620;SDS011;29213;50.770;7.298;2023-07-08T08:34:47;5.65;;;3.80;;
43620;SDS011;29213;50.770;7.298;2023-07-08T08:37:13;5.25;;;3.70;;
43620;SDS011;29213;50.770;7.298;2023-07-08T08:39:38;5.25;;;3.17;;
43620;SDS011;29213;50.770;7.298;2023-07-08T08:42:04;5.80;;;3.42;;
43620;SDS011;29213;50.770;7.298;2023-07-08T08:44:35;5.90;;;3.67;;
43620;SDS011;29213;50.770;7.298;2023-07-08T08:47:04;5.20;;;3.72;;
43620;SDS011;29213;50.770;7.298;2023-07-08T08:49:51;6.10;;;3.85;;
43620;SDS011;29213;50.770;7.298;2023-07-08T08:52:22;6.38;;;3.67;;
43620;SDS011;29213;50.770;7.298;2023-07-08T08:54:47;6.53;;;4.13;;
43620;SDS011;29213;50.770;7.298;2023-07-08T08:57:31;5.07;;;3.65;;
43620;SDS011;29213;50.770;7.298;2023-07-08T09:00:04;6.13;;;3.28;;
43620;SDS011;29213;50.770;7.298;2023-07-08T09:02:32;5.10;;;3.45;;
43620;SDS011;29213;50.770;7.298;2023-07-08T09:05:03;5.00;;;3.55;;
43620;SDS011;29213;50.770;7.298;2023-07-08T09:07:34;5.13;;;3.22;;
43620;SDS011;29213;50.770;7.298;2023-07-08T09:10:15;4.80;;;3.05;;
43620;SDS011;29213;50.770;7.298;2023-07-08T09:12:51;4.88;;;3.08;;
43620;SDS011;29213;50.770;7.298;2023-07-08T09:15:20;4.82;;;3.20;;
43620;SDS011;29213;50.770;7.298;2023-07-08T09:17:46;5.95;;;3.00;;
43620;SDS011;29213;50.770;7.298;2023-07-08T09:20:17;4.72;;;3.20;;
43620;SDS011;29213;50.770;7.298;2023-07-08T09:28:03;4.60;;;2.75;;
43620;SDS011;29213;50.770;7.298;2023-07-08T09:30:28;6.40;;;3.30;;
43620;SDS011;29213;50.770;7.298;2023-07-08T09:32:55;5.35;;;3.00;;
43620;SDS011;29213;50.770;7.298;2023-07-08T09:35:26;5.57;;;3.00;;
43620;SDS011;29213;50.770;7.298;2023-07-08T09:37:52;5.80;;;3.20;;
43620;SDS011;29213;50.770;7.298;2023-07-08T09:40:20;5.95;;;3.22;;
43620;SDS011;29213;50.770;7.298;2023-07-08T09:42:54;5.03;;;2.92;;
43620;SDS011;29213;50.770;7.298;2023-07-08T09:45:42;5.82;;;2.65;;
43620;SDS011;29213;50.770;7.298;2023-07-08T09:48:17;5.05;;;2.88;;
43620;SDS011;29213;50.770;7.298;2023-07-08T09:50:47;4.22;;;2.70;;
43620;SDS011;29213;50.770;7.298;2023-07-08T09:53:14;5.75;;;2.88;;
43620;SDS011;29213;50.770;7.298;2023-07-08T09:55:40;4.95;;;3.10;;
43620;SDS011;29213;50.770;7.298;2023-07-08T09:58:08;5.45;;;3.00;;
43620;SDS011;29213;50.770;7.298;2023-07-08T10:00:39;4.10;;;2.60;;
43620;SDS011;29213;50.770;7.298;2023-07-08T10:03:12;5.03;;;3.30;;
43620;SDS011;29213;50.770;7.298;2023-07-08T10:05:46;4.85;;;3.00;;
43620;SDS011;29213;50.770;7.298;2023-07-08T10:08:17;5.67;;;2.73;;
43620;SDS011;29213;50.770;7.298;2023-07-08T10:10:46;4.45;;;2.72;;
43620;SDS011;29213;50.770;7.298;2023-07-08T10:13:29;4.20;;;2.83;;
43620;SDS011;29213;50.770;7.298;2023-07-08T10:16:14;5.45;;;3.33;;
43620;SDS011;29213;50.770;7.298;2023-07-08T10:18:45;5.05;;;3.05;;
43620;SDS011;29213;50.770;7.298;2023-07-08T10:29:40;4.72;;;3.05;;
43620;SDS011;29213;50.770;7.298;2023-07-08T10:32:26;3.88;;;2.63;;
43620;SDS011;29213;50.770;7.298;2023-07-08T10:35:03;4.78;;;2.70;;
43620;SDS011;29213;50.770;7.298;2023-07-08T10:43:31;5.05;;;2.80;;
43620;SDS011;29213;50.770;7.298;2023-07-08T10:46:13;4.72;;;2.72;;
43620;SDS011;29213;50.770;7.298;2023-07-08T10:51:50;5.75;;;3.10;;
43620;SDS011;29213;50.770;7.298;2023-07-08T10:57:06;5.82;;;2.53;;
43620;SDS011;29213;50.770;7.298;2023-07-08T11:00:07;4.10;;;2.53;;
43620;SDS011;29213;50.770;7.298;2023-07-08T11:05:59;4.00;;;2.70;;
43620;SDS011;29213;50.770;7.298;2023-07-08T11:08:32;5.43;;;3.08;;
43620;SDS011;29213;50.770;7.298;2023-07-08T11:13:58;4.55;;;2.88;;
43620;SDS011;29213;50.770;7.298;2023-07-08T11:16:31;6.47;;;3.38;;
43620;SDS011;29213;50.770;7.298;2023-07-08T11:19:06;5.72;;;3.25;;
43620;SDS011;29213;50.770;7.298;2023-07-08T11:21:40;6.28;;;3.20;;
43620;SDS011;29213;50.770;7.298;2023-07-08T11:31:45;5.05;;;3.38;;
43620;SDS011;29213;50.770;7.298;2023-07-08T11:34:12;5.35;;;3.17;;
43620;SDS011;29213;50.770;7.298;2023-07-08T11:36:40;5.47;;;3.50;;
43620;SDS011;29213;50.770;7.298;2023-07-08T11:41:51;8.07;;;3.72;;
43620;SDS011;29213;50.770;7.298;2023-07-08T11:44:28;5.40;;;3.58;;
43620;SDS011;29213;50.770;7.298;2023-07-08T11:46:55;7.22;;;3.78;;
43620;SDS011;29213;50.770;7.298;2023-07-08T11:49:22;5.78;;;3.38;;
43620;SDS011;29213;50.770;7.298;2023-07-08T11:51:51;5.30;;;3.30;;
43620;SDS011;29213;50.770;7.298;2023-07-08T11:54:28;5.85;;;3.47;;
43620;SDS011;29213;50.770;7.298;2023-07-08T11:57:00;5.28;;;3.50;;
43620;SDS011;29213;50.770;7.298;2023-07-08T11:59:32;5.25;;;3.60;;
43620;SDS011;29213;50.770;7.298;2023-07-08T12:02:18;7.55;;;3.67;;
43620;SDS011;29213;50.770;7.298;2023-07-08T12:04:58;5.30;;;3.30;;
43620;SDS011;29213;50.770;7.298;2023-07-08T12:07:37;5.95;;;3.60;;
43620;SDS011;29213;50.770;7.298;2023-07-08T12:10:10;5.40;;;3.55;;
43620;SDS011;29213;50.770;7.298;2023-07-08T12:12:54;4.88;;;3.55;;
43620;SDS011;29213;50.770;7.298;2023-07-08T12:15:24;5.93;;;3.20;;
43620;SDS011;29213;50.770;7.298;2023-07-08T12:17:52;5.15;;;3.22;;
43620;SDS011;29213;50.770;7.298;2023-07-08T12:20:21;5.63;;;3.30;;
43620;SDS011;29213;50.770;7.298;2023-07-08T12:22:49;4.70;;;3.10;;
43620;SDS011;29213;50.770;7.298;2023-07-08T12:25:16;5.53;;;3.65;;
43620;SDS011;29213;50.770;7.298;2023-07-08T12:27:48;5.68;;;3.38;;
43620;SDS011;29213;50.770;7.298;2023-07-08T12:30:13;4.22;;;2.90;;
43620;SDS011;29213;50.770;7.298;2023-07-08T12:32:40;6.60;;;3.35;;
43620;SDS011;29213;50.770;7.298;2023-07-08T12:37:45;5.50;;;2.75;;
43620;SDS011;29213;50.770;7.298;2023-07-08T12:40:10;5.75;;;3.45;;
43620;SDS011;29213;50.770;7.298;2023-07-08T12:42:36;6.55;;;3.72;;
43620;SDS011;29213;50.770;7.298;2023-07-08T12:45:02;5.93;;;3.38;;
43620;SDS011;29213;50.770;7.298;2023-07-08T12:47:27;6.15;;;3.88;;
43620;SDS011;29213;50.770;7.298;2023-07-08T12:49:53;6.45;;;3.83;;
43620;SDS011;29213;50.770;7.298;2023-07-08T12:52:22;5.78;;;3.55;;
43620;SDS011;29213;50.770;7.298;2023-07-08T12:54:48;4.70;;;3.20;;
43620;SDS011;29213;50.770;7.298;2023-07-08T12:57:15;4.97;;;3.08;;
43620;SDS011;29213;50.770;7.298;2023-07-08T12:59:42;4.45;;;3.00;;
43620;SDS011;29213;50.770;7.298;2023-07-08T13:02:12;5.25;;;3.47;;
43620;SDS011;29213;50.770;7.298;2023-07-08T13:04:42;4.88;;;3.00;;
43620;SDS011;29213;50.770;7.298;2023-07-08T13:07:14;7.05;;;3.92;;
43620;SDS011;29213;50.770;7.298;2023-07-08T13:09:53;6.05;;;3.58;;
43620;SDS011;29213;50.770;7.298;2023-07-08T13:12:19;6.93;;;3.83;;
43620;SDS011;29213;50.770;7.298;2023-07-08T13:14:50;5.97;;;3.72;;
43620;SDS011;29213;50.770;7.298;2023-07-08T13:19:44;6.50;;;3.70;;
43620;SDS011;29213;50.770;7.298;2023-07-08T13:22:18;6.00;;;3.30;;
43620;SDS011;29213;50.770;7.298;2023-07-08T13:24:45;5.05;;;2.97;;
43620;SDS011;29213;50.770;7.298;2023-07-08T13:27:21;4.53;;;2.95;;
43620;SDS011;29213;50.770;7.298;2023-07-08T13:29:52;5.70;;;3.38;;
43620;SDS011;29213;50.770;7.298;2023-07-08T13:32:19;5.68;;;3.53;;
43620;SDS011;29213;50.770;7.298;2023-07-08T13:34:44;8.38;;;3.33;;
43620;SDS011;29213;50.770;7.298;2023-07-08T13:37:15;8.00;;;3.72;;
43620;SDS011;29213;50.770;7.298;2023-07-08T13:39:43;12.20;;;4.18;;
43620;SDS011;29213;50.770;7.298;2023-07-08T13:42:10;11.23;;;3.97;;
43620;SDS011;29213;50.770;7.298;2023-07-08T13:44:43;7.22;;;3.88;;
43620;SDS011;29213;50.770;7.298;2023-07-08T13:47:26;32.78;;;6.85;;
43620;SDS011;29213;50.770;7.298;2023-07-08T13:50:27;20.65;;;5.57;;
43620;SDS011;29213;50.770;7.298;2023-07-08T13:52:54;5.90;;;4.18;;
43620;SDS011;29213;50.770;7.298;2023-07-08T13:55:21;7.75;;;3.92;;
43620;SDS011;29213;50.770;7.298;2023-07-08T13:57:55;6.95;;;4.45;;
43620;SDS011;29213;50.770;7.298;2023-07-08T14:00:23;6.32;;;3.90;;
43620;SDS011;29213;50.770;7.298;2023-07-08T14:02:48;6.88;;;4.32;;
43620;SDS011;29213;50.770;7.298;2023-07-08T14:05:14;14.15;;;4.00;;
43620;SDS011;29213;50.770;7.298;2023-07-08T14:07:45;16.83;;;4.95;;
43620;SDS011;29213;50.770;7.298;2023-07-08T14:10:11;7.03;;;4.40;;
43620;SDS011;29213;50.770;7.298;2023-07-08T14:12:37;5.90;;;3.17;;
43620;SDS011;29213;50.770;7.298;2023-07-08T14:15:03;7.25;;;3.58;;
43620;SDS011;29213;50.770;7.298;2023-07-08T14:17:28;10.98;;;4.68;;
43620;SDS011;29213;50.770;7.298;2023-07-08T14:19:54;8.40;;;4.07;;
43620;SDS011;29213;50.770;7.298;2023-07-08T14:22:22;8.25;;;3.90;;
43620;SDS011;29213;50.770;7.298;2023-07-08T14:24:49;7.03;;;4.07;;
43620;SDS011;29213;50.770;7.298;2023-07-08T14:27:14;5.53;;;3.63;;
43620;SDS011;29213;50.770;7.298;2023-07-08T14:29:42;6.43;;;3.90;;
43620;SDS011;29213;50.770;7.298;2023-07-08T14:32:21;7.05;;;3.70;;
43620;SDS011;29213;50.770;7.298;2023-07-08T14:34:52;7.38;;;3.85;;
43620;SDS011;29213;50.770;7.298;2023-07-08T14:37:21;5.97;;;4.50;;
43620;SDS011;29213;50.770;7.298;2023-07-08T14:39:47;7.00;;;3.60;;
43620;SDS011;29213;50.770;7.298;2023-07-08T14:42:13;5.65;;;3.70;;
43620;SDS011;29213;50.770;7.298;2023-07-08T14:44:42;6.47;;;4.03;;
43620;SDS011;29213;50.770;7.298;2023-07-08T14:47:10;5.67;;;3.30;;
43620;SDS011;29213;50.770;7.298;2023-07-08T14:49:37;5.10;;;3.20;;
43620;SDS011;29213;50.770;7.298;2023-07-08T14:52:03;5.78;;;3.63;;
43620;SDS011;29213;50.770;7.298;2023-07-08T14:54:28;6.57;;;3.75;;
43620;SDS011;29213;50.770;7.298;2023-07-08T14:56:57;7.57;;;4.10;;
43620;SDS011;29213;50.770;7.298;2023-07-08T14:59:24;6.10;;;4.13;;
43620;SDS011;29213;50.770;7.298;2023-07-08T15:01:53;7.03;;;4.10;;
43620;SDS011;29213;50.770;7.298;2023-07-08T15:04:20;6.50;;;4.30;;
43620;SDS011;29213;50.770;7.298;2023-07-08T15:06:46;6.22;;;3.70;;
43620;SDS011;29213;50.770;7.298;2023-07-08T15:09:11;5.55;;;3.88;;
43620;SDS011;29213;50.770;7.298;2023-07-08T15:11:39;6.95;;;4.20;;
43620;SDS011;29213;50.770;7.298;2023-07-08T15:14:09;6.50;;;4.05;;
43620;SDS011;29213;50.770;7.298;2023-07-08T15:16:42;6.63;;;3.95;;
43620;SDS011;29213;50.770;7.298;2023-07-08T15:19:09;7.15;;;4.60;;
43620;SDS011;29213;50.770;7.298;2023-07-08T15:24:01;5.95;;;3.90;;
43620;SDS011;29213;50.770;7.298;2023-07-08T15:26:27;6.97;;;3.63;;
43620;SDS011;29213;50.770;7.298;2023-07-08T15:28:53;5.97;;;3.70;;
43620;SDS011;29213;50.770;7.298;2023-07-08T15:31:24;6.57;;;3.92;;
43620;SDS011;29213;50.770;7.298;2023-07-08T15:33:53;7.15;;;4.30;;
43620;SDS011;29213;50.770;7.298;2023-07-08T15:36:19;6.15;;;3.47;;
43620;SDS011;29213;50.770;7.298;2023-07-08T15:38:45;6.43;;;3.95;;
43620;SDS011;29213;50.770;7.298;2023-07-08T15:41:15;5.57;;;3.45;;
43620;SDS011;29213;50.770;7.298;2023-07-08T15:43:45;7.25;;;4.28;;